createdAt,value
2022-07-28T00:00:32.028Z,1.8
2022-07-28T00:01:48.313Z,1.8
2022-07-28T00:03:04.609Z,1.6
2022-07-28T00:04:20.901Z,2
2022-07-28T00:05:36.224Z,1.5
2022-07-28T00:06:52.519Z,1.7
2022-07-28T00:08:08.805Z,1.8
2022-07-28T00:09:25.103Z,1.9
2022-07-28T00:10:41.395Z,2
2022-07-28T00:11:57.683Z,1.7
2022-07-28T00:13:13.974Z,1.9
2022-07-28T00:14:30.283Z,1.8
2022-07-28T00:15:46.561Z,1.7
2022-07-28T00:17:02.853Z,1.8
2022-07-28T00:18:19.165Z,2
2022-07-28T00:19:35.448Z,1.8
2022-07-28T00:20:51.754Z,1.9
2022-07-28T00:22:07.051Z,1.9
2022-07-28T00:23:23.339Z,2
2022-07-28T00:24:39.632Z,1.9
2022-07-28T00:25:55.926Z,1.8
2022-07-28T00:27:12.232Z,2.1
2022-07-28T00:28:28.513Z,1.8
2022-07-28T00:29:44.814Z,1.8
2022-07-28T00:31:01.117Z,1.8
2022-07-28T00:32:17.400Z,2.1
2022-07-28T00:33:33.697Z,1.9
2022-07-28T00:34:49.984Z,1.8
2022-07-28T00:36:06.286Z,1.8
2022-07-28T00:37:22.587Z,1.9
2022-07-28T00:38:37.883Z,1.8
2022-07-28T00:39:54.177Z,1.9
2022-07-28T00:41:10.469Z,1.7
2022-07-28T00:42:26.778Z,1.8
2022-07-28T00:43:43.057Z,1.8
2022-07-28T00:44:59.352Z,2
2022-07-28T00:46:15.647Z,1.8
2022-07-28T00:47:31.949Z,1.7
2022-07-28T00:48:48.248Z,1.7
2022-07-28T00:50:04.533Z,1.9
2022-07-28T00:51:20.835Z,1.8
2022-07-28T00:52:37.130Z,1.9
2022-07-28T00:53:53.407Z,1.9
2022-07-28T00:55:08.718Z,1.8
2022-07-28T00:56:25.013Z,1.8
2022-07-28T00:57:41.319Z,1.9
2022-07-28T00:58:57.603Z,1.8
2022-07-28T01:00:13.910Z,2
2022-07-28T01:01:30.199Z,1.8
2022-07-28T01:02:46.494Z,1.8
2022-07-28T01:04:02.785Z,1.9
2022-07-28T01:05:19.082Z,1.8
2022-07-28T01:06:35.371Z,2.1
2022-07-28T01:07:51.673Z,1.9
2022-07-28T01:09:07.951Z,2
2022-07-28T01:10:24.260Z,1.8
2022-07-28T01:11:39.563Z,2
2022-07-28T01:12:55.866Z,2.1
2022-07-28T01:14:12.155Z,2
2022-07-28T01:15:28.442Z,1.9
2022-07-28T01:16:44.739Z,1.8
2022-07-28T01:18:01.026Z,2
2022-07-28T01:19:16.344Z,2
2022-07-28T01:20:32.644Z,1.8
2022-07-28T01:21:48.940Z,1.9
2022-07-28T01:23:05.233Z,1.8
2022-07-28T01:24:21.519Z,1.8
2022-07-28T01:25:37.805Z,1.9
2022-07-28T01:26:54.111Z,1.9
2022-07-28T01:28:10.414Z,2
2022-07-28T01:29:26.705Z,2.1
2022-07-28T01:30:43.002Z,1.9
2022-07-28T01:31:59.279Z,1.9
2022-07-28T01:33:15.573Z,2
2022-07-28T01:34:31.880Z,2.2
2022-07-28T01:35:47.188Z,2.1
2022-07-28T01:37:03.486Z,2
2022-07-28T01:38:19.768Z,2
2022-07-28T01:39:36.056Z,1.9
2022-07-28T01:40:52.351Z,2
2022-07-28T01:42:08.658Z,2
2022-07-28T01:43:24.946Z,2
2022-07-28T01:44:41.241Z,1.9
2022-07-28T01:45:57.525Z,2
2022-07-28T01:47:13.819Z,2
2022-07-28T01:48:30.123Z,1.9
2022-07-28T01:49:46.416Z,2
2022-07-28T01:51:02.715Z,2
2022-07-28T01:52:18.010Z,1.9
2022-07-28T01:53:34.307Z,1.9
2022-07-28T01:54:50.608Z,1.7
2022-07-28T01:56:06.911Z,2
2022-07-28T01:57:23.198Z,2.1
2022-07-28T01:58:39.480Z,1.9
2022-07-28T01:59:55.790Z,2
2022-07-28T02:01:12.085Z,2
2022-07-28T02:02:28.360Z,1.9
2022-07-28T02:03:44.654Z,1.9
2022-07-28T02:05:00.957Z,1.9
2022-07-28T02:06:17.261Z,1.8
2022-07-28T02:07:33.550Z,2
2022-07-28T02:08:48.866Z,2
2022-07-28T02:10:05.149Z,2
2022-07-28T02:11:21.446Z,2
2022-07-28T02:12:37.744Z,1.9
2022-07-28T02:13:54.022Z,2.1
2022-07-28T02:15:10.333Z,2.1
2022-07-28T02:16:26.627Z,2
2022-07-28T02:17:42.917Z,2.1
2022-07-28T02:18:59.206Z,1.9
2022-07-28T02:20:15.492Z,2
2022-07-28T02:21:31.790Z,2.1
2022-07-28T02:22:48.082Z,2.3
2022-07-28T02:24:04.381Z,2
2022-07-28T02:25:19.700Z,2.1
2022-07-28T02:26:35.981Z,2.3
2022-07-28T02:27:52.276Z,2.3
2022-07-28T02:29:08.578Z,2.3
2022-07-28T02:30:24.878Z,2.2
2022-07-28T02:31:41.168Z,2.1
2022-07-28T02:32:57.444Z,2.1
2022-07-28T02:35:30.046Z,2.1
2022-07-28T02:36:46.336Z,2.4
2022-07-28T02:38:02.639Z,2.1
2022-07-28T02:39:18.919Z,2.3
2022-07-28T02:40:35.209Z,2.1
2022-07-28T02:41:50.522Z,2.1
2022-07-28T02:43:06.821Z,1.9
2022-07-28T02:44:23.126Z,2.1
2022-07-28T02:45:39.417Z,2.1
2022-07-28T02:48:11.941Z,2
2022-07-28T02:49:28.235Z,2.1
2022-07-28T02:50:44.543Z,2.1
2022-07-28T02:52:00.777Z,2.2
2022-07-28T02:53:17.017Z,2.1
2022-07-28T02:54:33.316Z,2
2022-07-28T02:55:49.608Z,1.9
2022-07-28T02:57:05.899Z,2.1
2022-07-28T02:58:21.173Z,2.3
2022-07-28T02:59:37.463Z,1.9
2022-07-28T03:00:53.721Z,2
2022-07-28T03:02:09.965Z,2.1
2022-07-28T03:03:26.195Z,2.2
2022-07-28T03:04:42.436Z,2
2022-07-28T03:05:58.689Z,2
2022-07-28T03:07:14.916Z,2.1
2022-07-28T03:08:31.151Z,2
2022-07-28T03:09:47.400Z,2.1
2022-07-28T03:11:03.634Z,2
2022-07-28T03:12:19.869Z,2.1
2022-07-28T03:13:36.124Z,2
2022-07-28T03:14:51.371Z,2.2
2022-07-28T03:16:07.609Z,2.2
2022-07-28T03:17:23.860Z,1.9
2022-07-28T03:18:40.104Z,2.2
2022-07-28T03:19:56.331Z,2
2022-07-28T03:21:12.582Z,2
2022-07-28T03:22:28.811Z,2.3
2022-07-28T03:23:45.052Z,2
2022-07-28T03:25:01.302Z,2.2
2022-07-28T03:26:17.544Z,2
2022-07-28T03:27:33.775Z,2.2
2022-07-28T03:28:50.016Z,2.2
2022-07-28T03:30:06.264Z,2.3
2022-07-28T03:31:21.508Z,2.2
2022-07-28T03:32:37.740Z,2.4
2022-07-28T03:33:53.986Z,2.2
2022-07-28T03:35:10.236Z,1.9
2022-07-28T03:36:26.468Z,2.2
2022-07-28T03:37:42.711Z,2.1
2022-07-28T03:38:58.946Z,2
2022-07-28T03:40:15.194Z,2.1
2022-07-28T03:41:31.431Z,2.2
2022-07-28T03:42:47.663Z,2.2
2022-07-28T03:44:03.903Z,2.4
2022-07-28T03:45:20.143Z,2.2
2022-07-28T03:46:36.389Z,2.3
2022-07-28T03:47:51.656Z,2.2
2022-07-28T03:49:07.893Z,2.1
2022-07-28T03:50:24.127Z,2
2022-07-28T03:51:40.372Z,2.2
2022-07-28T03:52:56.607Z,2.5
2022-07-28T03:54:12.840Z,2.1
2022-07-28T03:55:29.077Z,2.1
2022-07-28T03:56:45.336Z,2.1
2022-07-28T03:58:01.566Z,2.1
2022-07-28T03:59:17.805Z,2.2
2022-07-28T04:00:34.048Z,2.1
2022-07-28T04:01:50.287Z,2.2
2022-07-28T04:03:06.528Z,2.2
2022-07-28T04:04:21.785Z,2
2022-07-28T04:05:38.023Z,2.1
2022-07-28T04:06:54.262Z,2
2022-07-28T04:08:10.499Z,2.1
2022-07-28T04:09:26.746Z,2.2
2022-07-28T04:10:42.987Z,2.1
2022-07-28T04:11:59.220Z,2.2
2022-07-28T04:13:15.470Z,2.2
2022-07-28T04:14:31.695Z,2.1
2022-07-28T04:15:47.941Z,2.2
2022-07-28T04:17:04.191Z,2.4
2022-07-28T04:18:20.429Z,2.3
2022-07-28T04:19:36.670Z,2.3
2022-07-28T04:20:51.921Z,2.2
2022-07-28T04:22:08.150Z,2.3
2022-07-28T04:23:24.391Z,2.2
2022-07-28T04:24:40.637Z,2.1
2022-07-28T04:25:56.886Z,2.2
2022-07-28T04:27:13.119Z,2.3
2022-07-28T04:28:29.362Z,2.2
2022-07-28T04:29:45.600Z,2.1
2022-07-28T04:31:01.840Z,2.1
2022-07-28T04:32:18.076Z,2.1
2022-07-28T04:33:34.324Z,2.3
2022-07-28T04:34:50.560Z,2.2
2022-07-28T04:36:06.800Z,2
2022-07-28T04:37:22.057Z,2.2
2022-07-28T04:38:38.285Z,2.1
2022-07-28T04:39:54.526Z,2.2
2022-07-28T04:41:10.779Z,2.2
2022-07-28T04:42:27.022Z,2.4
2022-07-28T04:43:43.251Z,2.3
2022-07-28T04:44:59.495Z,2.5
2022-07-28T04:46:15.732Z,2.5
2022-07-28T04:47:31.970Z,2.2
2022-07-28T04:48:48.211Z,2.1
2022-07-28T04:50:04.462Z,2.1
2022-07-28T04:51:20.687Z,2
2022-07-28T04:52:36.940Z,2.2
2022-07-28T04:53:52.189Z,2.4
2022-07-28T04:55:08.431Z,2.3
2022-07-28T04:56:24.674Z,2.1
2022-07-28T04:57:40.906Z,2.2
2022-07-28T04:58:57.148Z,2.2
2022-07-28T05:00:13.382Z,2.3
2022-07-28T05:01:29.624Z,2.4
2022-07-28T05:02:45.864Z,2.3
2022-07-28T05:04:02.106Z,2.2
2022-07-28T05:05:18.341Z,2.5
2022-07-28T05:06:34.576Z,2.6
2022-07-28T05:07:50.825Z,2.2
2022-07-28T05:09:07.058Z,2.3
2022-07-28T05:10:22.331Z,2.3
2022-07-28T05:11:38.567Z,2.3
2022-07-28T05:12:54.810Z,2.3
2022-07-28T05:14:11.048Z,2.2
2022-07-28T05:15:27.287Z,2.2
2022-07-28T05:16:43.512Z,2.2
2022-07-28T05:17:59.770Z,2.4
2022-07-28T05:19:15.991Z,2.1
2022-07-28T05:20:32.231Z,2.1
2022-07-28T05:21:48.491Z,2.6
2022-07-28T05:23:04.728Z,2.3
2022-07-28T05:24:20.964Z,2.2
2022-07-28T05:25:37.201Z,2.1
2022-07-28T05:26:52.459Z,2.1
2022-07-28T05:28:08.704Z,2.2
2022-07-28T05:29:24.941Z,2.2
2022-07-28T05:30:41.178Z,2.1
2022-07-28T05:31:57.417Z,2.3
2022-07-28T05:33:13.661Z,2.6
2022-07-28T05:34:28.906Z,2.3
2022-07-28T05:37:01.392Z,2
2022-07-28T05:38:17.624Z,2
2022-07-28T05:39:33.877Z,2
2022-07-28T05:40:50.114Z,1.9
2022-07-28T05:42:06.360Z,2.1
2022-07-28T05:43:22.600Z,2.1
2022-07-28T05:44:38.830Z,2
2022-07-28T05:45:55.079Z,2
2022-07-28T05:47:11.309Z,1.9
2022-07-28T05:48:27.548Z,2
2022-07-28T05:49:43.798Z,2.3
2022-07-28T05:50:59.046Z,2.3
2022-07-28T05:52:15.292Z,2
2022-07-28T05:53:31.519Z,2.3
2022-07-28T05:54:47.759Z,2
2022-07-28T05:56:04.002Z,2
2022-07-28T05:57:20.000Z,2
2022-07-28T05:58:36.477Z,2.2
2022-07-28T05:59:52.728Z,2.1
2022-07-28T06:01:08.964Z,2
2022-07-28T06:02:25.205Z,1.9
2022-07-28T06:03:41.440Z,2.1
2022-07-28T06:04:57.691Z,1.9
2022-07-28T06:06:13.926Z,2
2022-07-28T06:07:29.180Z,2
2022-07-28T06:08:45.413Z,2
2022-07-28T06:10:01.653Z,2
2022-07-28T06:11:17.907Z,1.9
2022-07-28T06:12:34.148Z,1.9
2022-07-28T06:13:50.391Z,2.1
2022-07-28T06:16:22.850Z,2.2
2022-07-28T06:17:39.098Z,2
2022-07-28T06:18:55.340Z,2.1
2022-07-28T06:20:11.580Z,2.3
2022-07-28T06:21:27.818Z,2.2
2022-07-28T06:22:44.058Z,2.2
2022-07-28T06:23:59.312Z,2
2022-07-28T06:25:15.554Z,2.1
2022-07-28T06:26:31.790Z,1.9
2022-07-28T06:27:48.032Z,2.1
2022-07-28T06:29:04.277Z,2
2022-07-28T06:30:20.507Z,2
2022-07-28T06:31:36.751Z,2.1
2022-07-28T06:32:52.988Z,1.8
2022-07-28T06:34:09.223Z,1.8
2022-07-28T06:35:25.466Z,1.8
2022-07-28T06:36:41.704Z,1.8
2022-07-28T06:37:57.948Z,2
2022-07-28T06:40:30.440Z,2
2022-07-28T06:41:45.688Z,1.8
2022-07-28T06:43:01.917Z,2
2022-07-28T06:44:18.176Z,2
2022-07-28T06:45:34.409Z,1.8
2022-07-28T06:46:50.651Z,1.8
2022-07-28T06:48:06.888Z,2
2022-07-28T06:49:23.117Z,1.8
2022-07-28T06:50:39.362Z,1.8
2022-07-28T06:51:55.606Z,1.9
2022-07-28T06:53:11.849Z,2
2022-07-28T06:54:28.078Z,2.1
2022-07-28T06:55:44.313Z,1.9
2022-07-28T06:57:00.570Z,1.8
2022-07-28T06:58:15.830Z,2
2022-07-28T06:59:32.065Z,2
2022-07-28T07:00:48.302Z,1.9
2022-07-28T07:02:04.532Z,1.8
2022-07-28T07:03:20.769Z,1.9
2022-07-28T07:04:37.008Z,2.1
2022-07-28T07:05:53.260Z,1.9
2022-07-28T07:07:09.490Z,1.7
2022-07-28T07:08:25.731Z,1.9
2022-07-28T07:09:41.975Z,1.9
2022-07-28T07:10:58.212Z,1.9
2022-07-28T07:12:14.465Z,1.9
2022-07-28T07:13:30.698Z,1.8
2022-07-28T07:14:45.951Z,1.9
2022-07-28T07:16:02.196Z,1.9
2022-07-28T07:17:18.430Z,1.8
2022-07-28T07:18:34.681Z,1.7
2022-07-28T07:19:50.909Z,2
2022-07-28T07:21:07.159Z,1.9
2022-07-28T07:22:23.398Z,2
2022-07-28T07:23:39.638Z,1.9
2022-07-28T07:24:55.877Z,1.8
2022-07-28T07:26:12.113Z,1.8
2022-07-28T07:27:28.354Z,2
2022-07-28T07:28:44.597Z,2
2022-07-28T07:30:00.831Z,1.7
2022-07-28T07:31:16.083Z,1.7
2022-07-28T07:32:32.327Z,1.9
2022-07-28T07:33:48.558Z,1.7
2022-07-28T07:35:04.793Z,1.7
2022-07-28T07:36:21.037Z,1.8
2022-07-28T07:37:37.294Z,1.6
2022-07-28T07:38:53.520Z,1.7
2022-07-28T07:40:09.771Z,1.7
2022-07-28T07:41:26.006Z,1.8
2022-07-28T07:42:42.239Z,1.7
2022-07-28T07:43:58.482Z,1.8
2022-07-28T07:45:14.731Z,1.9
2022-07-28T07:46:30.965Z,2.2
2022-07-28T07:47:46.217Z,1.9
2022-07-28T07:49:02.451Z,1.6
2022-07-28T07:50:18.689Z,1.6
2022-07-28T07:51:34.932Z,1.8
2022-07-28T07:52:51.182Z,1.5
2022-07-28T07:54:07.421Z,1.6
2022-07-28T07:55:23.665Z,1.8
2022-07-28T07:56:39.886Z,1.5
2022-07-28T07:57:56.137Z,1.8
2022-07-28T07:59:12.376Z,1.6
2022-07-28T08:00:28.624Z,1.6
2022-07-28T08:01:44.864Z,1.6
2022-07-28T08:03:01.087Z,1.7
2022-07-28T08:04:16.346Z,1.5
2022-07-28T08:05:32.588Z,1.6
2022-07-28T08:06:48.835Z,1.7
2022-07-28T08:08:05.067Z,1.5
2022-07-28T08:10:37.546Z,1.6
2022-07-28T08:11:53.789Z,1.6
2022-07-28T08:13:10.029Z,1.5
2022-07-28T08:15:42.516Z,1.7
2022-07-28T08:16:58.740Z,1.7
2022-07-28T08:18:14.988Z,1.6
2022-07-28T08:19:31.239Z,1.7
2022-07-28T08:20:46.475Z,1.6
2022-07-28T08:22:02.732Z,1.6
2022-07-28T08:23:18.963Z,1.4
2022-07-28T08:24:35.211Z,1.7
2022-07-28T08:25:51.451Z,1.8
2022-07-28T08:27:07.684Z,1.6
2022-07-28T08:28:23.932Z,1.5
2022-07-28T08:29:40.166Z,1.3
2022-07-28T08:30:56.400Z,1.3
2022-07-28T08:32:12.634Z,1.6
2022-07-28T08:33:28.880Z,1.5
2022-07-28T08:34:45.121Z,1.4
2022-07-28T08:36:01.357Z,1.5
2022-07-28T08:37:16.627Z,1.7
2022-07-28T08:38:32.860Z,1.6
2022-07-28T08:39:49.100Z,1.5
2022-07-28T08:41:05.340Z,1.4
2022-07-28T08:42:21.579Z,1.5
2022-07-28T08:43:37.827Z,1.6
2022-07-28T08:44:54.050Z,1.5
2022-07-28T08:46:10.299Z,1.6
2022-07-28T08:47:26.532Z,1.8
2022-07-28T08:48:42.784Z,1.5
2022-07-28T08:49:59.011Z,1.8
2022-07-28T08:51:15.254Z,1.6
2022-07-28T08:52:31.501Z,1.5
2022-07-28T08:53:46.744Z,1.4
2022-07-28T08:56:19.237Z,1.6
2022-07-28T08:57:35.463Z,1.5
2022-07-28T08:58:51.718Z,1.6
2022-07-28T09:01:24.191Z,1.5
2022-07-28T09:02:40.427Z,1.4
2022-07-28T09:03:56.681Z,1.7
2022-07-28T09:05:12.904Z,1.5
2022-07-28T09:06:29.151Z,1.5
2022-07-28T09:07:45.398Z,1.8
2022-07-28T09:09:01.619Z,1.7
2022-07-28T09:10:16.880Z,1.7
2022-07-28T09:11:33.115Z,1.6
2022-07-28T09:12:49.357Z,1.6
2022-07-28T09:14:05.595Z,1.5
2022-07-28T09:15:21.841Z,1.6
2022-07-28T09:16:38.083Z,1.6
2022-07-28T09:17:54.326Z,1.5
2022-07-28T09:19:10.554Z,1.4
2022-07-28T09:20:26.809Z,1.4
2022-07-28T09:21:43.038Z,1.5
2022-07-28T09:22:59.286Z,1.5
2022-07-28T09:24:15.512Z,1.3
2022-07-28T09:25:31.760Z,1.4
2022-07-28T09:26:47.014Z,1.4
2022-07-28T09:28:03.267Z,1.5
2022-07-28T09:29:19.506Z,1.6
2022-07-28T09:30:35.743Z,1.3
2022-07-28T09:31:51.984Z,1.2
2022-07-28T09:33:08.219Z,1.5
2022-07-28T09:34:24.457Z,1.3
2022-07-28T09:35:40.694Z,1.3
2022-07-28T09:36:56.934Z,1.3
2022-07-28T09:38:13.179Z,1.4
2022-07-28T09:39:29.422Z,1.4
2022-07-28T09:40:45.648Z,1.4
2022-07-28T09:42:01.890Z,1.5
2022-07-28T09:43:17.156Z,1.6
2022-07-28T09:44:33.388Z,1.5
2022-07-28T09:45:49.619Z,1.4
2022-07-28T09:47:05.860Z,1.5
2022-07-28T09:48:22.112Z,1.6
2022-07-28T09:49:37.365Z,1.4
2022-07-28T09:50:53.606Z,1.4
2022-07-28T09:52:09.841Z,1.4
2022-07-28T09:53:26.097Z,1.4
2022-07-28T09:54:42.327Z,1.4
2022-07-28T09:55:58.565Z,1.5
2022-07-28T09:57:14.804Z,1.4
2022-07-28T09:58:31.054Z,1.3
2022-07-28T09:59:47.288Z,1.3
2022-07-28T10:01:03.525Z,1.6
2022-07-28T10:02:19.768Z,1.4
2022-07-28T10:04:52.255Z,1.3
2022-07-28T10:06:07.505Z,1.4
2022-07-28T10:07:23.738Z,1.4
2022-07-28T10:08:39.980Z,1.4
2022-07-28T10:09:56.219Z,1.3
2022-07-28T10:11:12.456Z,1.3
2022-07-28T10:12:28.000Z,1.4
2022-07-28T10:13:44.930Z,1.4
2022-07-28T10:15:01.171Z,1.5
2022-07-28T10:16:17.422Z,1.6
2022-07-28T10:17:33.654Z,1.4
2022-07-28T10:18:49.906Z,1.4
2022-07-28T10:20:06.129Z,1.4
2022-07-28T10:21:22.384Z,1.3
2022-07-28T10:22:37.640Z,1.3
2022-07-28T10:23:53.873Z,1.5
2022-07-28T10:25:10.121Z,1.5
2022-07-28T10:26:26.348Z,1.4
2022-07-28T10:27:42.591Z,1.4
2022-07-28T10:28:58.837Z,1.5
2022-07-28T10:30:15.084Z,1.4
2022-07-28T10:31:31.321Z,1.5
2022-07-28T10:32:47.554Z,1.5
2022-07-28T10:34:03.786Z,1.4
2022-07-28T10:35:20.032Z,1.5
2022-07-28T10:36:36.264Z,1.3
2022-07-28T10:37:52.503Z,1.4
2022-07-28T10:39:07.769Z,1.4
2022-07-28T10:40:24.011Z,1.4
2022-07-28T10:41:40.244Z,1.5
2022-07-28T10:42:56.487Z,1.3
2022-07-28T10:44:12.718Z,1.4
2022-07-28T10:45:28.976Z,1.3
2022-07-28T10:46:45.210Z,1.4
2022-07-28T10:48:01.444Z,1.4
2022-07-28T10:49:17.677Z,1.4
2022-07-28T10:50:33.924Z,1.3
2022-07-28T10:51:50.162Z,1.3
2022-07-28T10:53:06.413Z,1.4
2022-07-28T10:54:22.653Z,1.4
2022-07-28T10:55:37.905Z,1.3
2022-07-28T10:56:54.142Z,1.4
2022-07-28T10:58:10.381Z,1.3
2022-07-28T10:59:26.615Z,1.4
2022-07-28T11:00:42.861Z,1.3
2022-07-28T11:01:59.108Z,1.6
2022-07-28T11:03:15.341Z,1.4
2022-07-28T11:04:31.578Z,1.3
2022-07-28T11:05:47.821Z,1.2
2022-07-28T11:07:04.072Z,1.3
2022-07-28T11:08:20.296Z,1.3
2022-07-28T11:09:36.543Z,1.4
2022-07-28T11:10:52.790Z,1.3
2022-07-28T11:12:08.030Z,1.3
2022-07-28T11:13:24.277Z,1.2
2022-07-28T11:14:40.510Z,1.4
2022-07-28T11:15:56.762Z,1.4
2022-07-28T11:17:12.986Z,1.2
2022-07-28T11:18:29.229Z,1.3
2022-07-28T11:19:45.469Z,1.3
2022-07-28T11:21:01.718Z,1.3
2022-07-28T11:22:17.945Z,1.2
2022-07-28T11:23:34.197Z,1.2
2022-07-28T11:24:50.432Z,1.3
2022-07-28T11:26:06.673Z,1.3
2022-07-28T11:27:22.915Z,1.1
2022-07-28T11:28:38.168Z,1.5
2022-07-28T11:29:54.399Z,1.5
2022-07-28T11:31:10.654Z,1.3
2022-07-28T11:32:26.898Z,1.2
2022-07-28T11:33:43.000Z,1.3
2022-07-28T11:34:59.364Z,1.2
2022-07-28T11:36:15.617Z,1.2
2022-07-28T11:37:31.844Z,1.1
2022-07-28T11:38:48.090Z,1.3
2022-07-28T11:40:04.320Z,1.2
2022-07-28T11:41:20.571Z,1.4
2022-07-28T11:42:36.798Z,1.2
2022-07-28T11:43:53.048Z,1.4
2022-07-28T11:45:08.306Z,1.4
2022-07-28T11:46:24.546Z,1.3
2022-07-28T11:47:40.792Z,1.4
2022-07-28T11:48:57.022Z,1.4
2022-07-28T11:50:13.265Z,1.3
2022-07-28T11:51:29.508Z,1.2
2022-07-28T11:52:45.749Z,1.2
2022-07-28T11:54:01.984Z,1.4
2022-07-28T11:55:18.209Z,1.3
2022-07-28T11:56:34.456Z,1.4
2022-07-28T11:59:06.943Z,1.2
2022-07-28T12:00:23.173Z,1.6
2022-07-28T12:01:38.438Z,1.5
2022-07-28T12:02:54.673Z,1.3
2022-07-28T12:04:10.922Z,1.4
2022-07-28T12:05:27.152Z,1.4
2022-07-28T12:06:43.385Z,1.3
2022-07-28T12:07:59.624Z,1.4
2022-07-28T12:09:15.881Z,1.2
2022-07-28T12:10:32.123Z,1.4
2022-07-28T12:11:48.360Z,1.4
2022-07-28T12:13:04.592Z,1.3
2022-07-28T12:14:20.829Z,1.5
2022-07-28T12:15:37.068Z,1.2
2022-07-28T12:16:53.315Z,1.3
2022-07-28T12:18:08.576Z,1.2
2022-07-28T12:19:24.811Z,1.3
2022-07-28T12:20:41.058Z,1.3
2022-07-28T12:21:57.289Z,1.2
2022-07-28T12:23:13.521Z,1.3
2022-07-28T12:24:29.765Z,1.3
2022-07-28T12:25:46.010Z,1.4
2022-07-28T12:27:02.252Z,1.3
2022-07-28T12:28:18.486Z,1.3
2022-07-28T12:29:34.721Z,1.2
2022-07-28T12:30:50.974Z,1.6
2022-07-28T12:32:07.205Z,1.2
2022-07-28T12:33:23.446Z,1.4
2022-07-28T12:35:54.944Z,1.3
2022-07-28T12:37:11.178Z,1.4
2022-07-28T12:38:27.424Z,1.2
2022-07-28T12:39:43.667Z,1.3
2022-07-28T12:40:59.892Z,1.5
2022-07-28T12:42:16.129Z,1.3
2022-07-28T12:43:32.388Z,1.2
2022-07-28T12:44:48.619Z,1.4
2022-07-28T12:46:04.850Z,1.3
2022-07-28T12:47:21.089Z,1.3
2022-07-28T12:48:37.337Z,1.4
2022-07-28T12:49:53.568Z,1.3
2022-07-28T12:51:08.841Z,1.2
2022-07-28T12:52:25.068Z,1.4
2022-07-28T12:53:41.314Z,1.2
2022-07-28T12:54:57.553Z,1.2
2022-07-28T12:56:13.784Z,1.3
2022-07-28T12:57:30.030Z,1.4
2022-07-28T12:58:46.275Z,1.3
2022-07-28T13:00:02.504Z,1.3
2022-07-28T13:01:18.746Z,1.4
2022-07-28T13:02:34.982Z,1.3
2022-07-28T13:03:51.222Z,1.2
2022-07-28T13:05:07.476Z,1.2
2022-07-28T13:06:23.699Z,1.4
2022-07-28T13:07:38.974Z,1.3
2022-07-28T13:08:55.208Z,1.2
2022-07-28T13:10:11.437Z,1.2
2022-07-28T13:11:27.691Z,1.2
2022-07-28T13:12:43.919Z,1.3
2022-07-28T13:14:00.172Z,1.3
2022-07-28T13:15:16.395Z,1.4
2022-07-28T13:16:32.652Z,1.1
2022-07-28T13:17:48.891Z,1.4
2022-07-28T13:19:05.121Z,1.3
2022-07-28T13:20:21.353Z,1.2
2022-07-28T13:21:37.600Z,1.3
2022-07-28T13:22:53.848Z,1.2
2022-07-28T13:24:09.099Z,1.3
2022-07-28T13:25:25.342Z,1.3
2022-07-28T13:26:41.567Z,1.3
2022-07-28T13:27:57.822Z,1.1
2022-07-28T13:29:14.055Z,1.3
2022-07-28T13:30:30.288Z,1.3
2022-07-28T13:31:46.531Z,1.4
2022-07-28T13:33:02.784Z,1.3
2022-07-28T13:34:19.020Z,1.2
2022-07-28T13:35:35.254Z,1.6
2022-07-28T13:36:51.489Z,1.4
2022-07-28T13:38:07.739Z,1.4
2022-07-28T13:40:40.211Z,1.4
2022-07-28T13:41:55.472Z,1.5
2022-07-28T13:43:11.701Z,1.3
2022-07-28T13:44:27.957Z,1.2
2022-07-28T13:45:44.179Z,1.3
2022-07-28T13:47:00.428Z,1.3
2022-07-28T13:48:16.673Z,1.3
2022-07-28T13:49:32.905Z,1.2
2022-07-28T13:50:49.151Z,1.2
2022-07-28T13:53:21.637Z,1.3
2022-07-28T13:55:54.108Z,1.3
2022-07-28T13:57:09.363Z,1.4
2022-07-28T13:58:24.626Z,1.3
2022-07-28T13:59:39.881Z,1.3
2022-07-28T14:00:55.138Z,1.3
2022-07-28T14:02:10.408Z,1.3
2022-07-28T14:03:25.654Z,1.2
2022-07-28T14:04:40.936Z,1.3
2022-07-28T14:05:56.187Z,1.3
2022-07-28T14:07:12.423Z,1.3
2022-07-28T14:08:28.658Z,1.2
2022-07-28T14:09:44.898Z,1.3
2022-07-28T14:11:01.151Z,1.4
2022-07-28T14:12:17.379Z,1.3
2022-07-28T14:13:33.619Z,1.2
2022-07-28T14:14:49.857Z,1.3
2022-07-28T14:16:06.093Z,1.2
2022-07-28T14:17:22.347Z,1.3
2022-07-28T14:18:37.614Z,1.3
2022-07-28T14:19:52.866Z,1.3
2022-07-28T14:21:09.099Z,1.4
2022-07-28T14:22:25.335Z,1.2
2022-07-28T14:23:41.580Z,1.3
2022-07-28T14:24:57.829Z,1.3
2022-07-28T14:26:14.050Z,1.3
2022-07-28T14:27:30.295Z,1.3
2022-07-28T14:28:46.538Z,1.4
2022-07-28T14:30:02.771Z,1.3
2022-07-28T14:32:35.250Z,1.3
2022-07-28T14:33:51.496Z,1.6
2022-07-28T14:35:07.728Z,1.5
2022-07-28T14:36:22.984Z,1.2
2022-07-28T14:37:39.232Z,1.4
2022-07-28T14:38:55.466Z,1.3
2022-07-28T14:40:11.716Z,1.4
2022-07-28T14:41:27.955Z,1.3
2022-07-28T14:42:44.195Z,1.3
2022-07-28T14:44:00.428Z,1.3
2022-07-28T14:45:16.666Z,1.2
2022-07-28T14:46:31.939Z,1.3
2022-07-28T14:47:47.189Z,1.3
2022-07-28T14:49:02.446Z,1.3
2022-07-28T14:50:17.706Z,1.2
2022-07-28T14:51:33.934Z,1.6
2022-07-28T14:52:50.177Z,1.3
2022-07-28T14:54:06.426Z,1.3
2022-07-28T14:55:22.664Z,1.3
2022-07-28T14:56:38.911Z,1.4
2022-07-28T14:57:55.144Z,1.4
2022-07-28T14:59:11.389Z,1.4
2022-07-28T15:00:27.613Z,1.2
2022-07-28T15:01:43.859Z,1.1
2022-07-28T15:03:00.100Z,1.4
2022-07-28T15:04:16.342Z,1.3
2022-07-28T15:05:32.591Z,1.4
2022-07-28T15:06:47.848Z,1.4
2022-07-28T15:08:04.077Z,1.5
2022-07-28T15:09:20.328Z,1.3
2022-07-28T15:10:36.559Z,1.3
2022-07-28T15:11:52.795Z,1.4
2022-07-28T15:13:09.029Z,1.3
2022-07-28T15:14:25.282Z,1.4
2022-07-28T15:15:40.541Z,1.3
2022-07-28T15:18:12.036Z,1.4
2022-07-28T15:19:27.293Z,1.3
2022-07-28T15:20:42.546Z,1.3
2022-07-28T15:21:58.791Z,1.3
2022-07-28T15:23:15.038Z,1.3
2022-07-28T15:24:31.264Z,1.3
2022-07-28T15:25:47.516Z,1.3
2022-07-28T15:27:03.748Z,1.2
2022-07-28T15:28:19.988Z,1.4
2022-07-28T15:29:36.220Z,1.4
2022-07-28T15:30:52.465Z,1.3
2022-07-28T15:32:08.712Z,1.2
2022-07-28T15:33:24.959Z,1.4
2022-07-28T15:34:41.192Z,1.2
2022-07-28T15:37:13.662Z,1.2
2022-07-28T15:38:28.915Z,1.3
2022-07-28T15:39:45.169Z,1.4
2022-07-28T15:41:01.407Z,1.4
2022-07-28T15:42:17.651Z,1.2
2022-07-28T15:43:33.885Z,1.4
2022-07-28T15:44:50.117Z,1.2
2022-07-28T15:46:06.362Z,1.4
2022-07-28T15:47:21.619Z,1.2
2022-07-28T15:48:36.883Z,1.2
2022-07-28T15:49:52.151Z,1.3
2022-07-28T15:51:07.391Z,1.2
2022-07-28T15:52:23.640Z,1.3
2022-07-28T15:53:39.882Z,1.2
2022-07-28T15:54:56.108Z,1.2
2022-07-28T15:56:12.352Z,1.3
2022-07-28T15:57:28.602Z,1.2
2022-07-28T15:58:44.838Z,1.2
2022-07-28T16:00:01.068Z,1.1
2022-07-28T16:01:17.325Z,1.2
2022-07-28T16:02:33.558Z,1.3
2022-07-28T16:03:49.796Z,1.3
2022-07-28T16:05:06.044Z,1.3
2022-07-28T16:06:22.275Z,1.4
2022-07-28T16:07:37.536Z,1.5
2022-07-28T16:08:53.774Z,2.2
2022-07-28T16:10:10.003Z,1.9
2022-07-28T16:11:26.252Z,1.7
2022-07-28T16:12:42.495Z,2
2022-07-28T16:13:58.734Z,1.4
2022-07-28T16:15:14.964Z,1.2
2022-07-28T16:16:30.222Z,1.3
2022-07-28T16:17:45.489Z,1.3
2022-07-28T16:19:01.725Z,1.2
2022-07-28T16:20:17.963Z,1.3
2022-07-28T16:21:34.211Z,1.4
2022-07-28T16:22:50.435Z,1.2
2022-07-28T16:24:06.677Z,1.2
2022-07-28T16:25:22.921Z,1.4
2022-07-28T16:26:39.171Z,1.2
2022-07-28T16:27:55.408Z,1.2
2022-07-28T16:29:11.641Z,1.4
2022-07-28T16:30:27.883Z,1.4
2022-07-28T16:31:44.124Z,1.3
2022-07-28T16:33:00.355Z,1.3
2022-07-28T16:34:15.626Z,1.2
2022-07-28T16:35:31.865Z,1.3
2022-07-28T16:36:48.108Z,1.3
2022-07-28T16:38:04.339Z,1.2
2022-07-28T16:39:20.583Z,1.3
2022-07-28T16:40:36.807Z,1.3
2022-07-28T16:41:53.050Z,1.2
2022-07-28T16:43:08.304Z,1.3
2022-07-28T16:44:23.558Z,1.3
2022-07-28T16:45:39.800Z,1.3
2022-07-28T16:46:56.032Z,1.2
2022-07-28T16:48:12.288Z,1.3
2022-07-28T16:49:28.522Z,1.4
2022-07-28T16:50:44.755Z,1.3
2022-07-28T16:52:01.012Z,1.3
2022-07-28T16:53:17.248Z,1.4
2022-07-28T16:54:33.490Z,1.3
2022-07-28T16:55:49.715Z,1.3
2022-07-28T16:57:05.955Z,1.3
2022-07-28T16:58:22.194Z,1.4
2022-07-28T16:59:38.438Z,1.3
2022-07-28T17:00:53.699Z,1.4
2022-07-28T17:02:09.937Z,1.4
2022-07-28T17:03:26.183Z,1.4
2022-07-28T17:04:42.409Z,1.3
2022-07-28T17:05:58.649Z,1.2
2022-07-28T17:07:14.902Z,1.6
2022-07-28T17:08:31.136Z,3.7
2022-07-28T17:09:46.396Z,5.4
2022-07-28T17:11:01.647Z,1.6
2022-07-28T17:12:17.895Z,1.3
2022-07-28T17:13:34.131Z,1.2
2022-07-28T17:14:50.364Z,1.5
2022-07-28T17:16:06.604Z,1.4
2022-07-28T17:17:22.845Z,1.5
2022-07-28T17:18:39.080Z,1.3
2022-07-28T17:19:55.318Z,1.4
2022-07-28T17:21:11.568Z,1.4
2022-07-28T17:22:27.812Z,1.4
2022-07-28T17:23:44.042Z,1.4
2022-07-28T17:25:00.278Z,1.4
2022-07-28T17:26:16.526Z,1.4
2022-07-28T17:27:31.773Z,1.5
2022-07-28T17:28:48.013Z,1.5
2022-07-28T17:30:04.256Z,1.5
2022-07-28T17:31:20.497Z,1.5
2022-07-28T17:32:36.749Z,1.3
2022-07-28T17:33:52.980Z,1.5
2022-07-28T17:35:09.223Z,1.5
2022-07-28T17:36:25.455Z,1.6
2022-07-28T17:37:41.692Z,1.5
2022-07-28T17:38:57.945Z,1.4
2022-07-28T17:40:14.174Z,1.3
2022-07-28T17:41:30.429Z,1.4
2022-07-28T17:42:46.657Z,1.3
2022-07-28T17:44:01.910Z,1.1
2022-07-28T17:45:18.162Z,1.5
2022-07-28T17:47:50.644Z,1.3
2022-07-28T17:49:06.874Z,1.3
2022-07-28T17:50:23.124Z,1.2
2022-07-28T17:51:39.355Z,1.2
2022-07-28T17:52:55.594Z,1.3
2022-07-28T17:54:11.842Z,1.2
2022-07-28T17:55:28.062Z,1.2
2022-07-28T17:56:44.319Z,1.1
2022-07-28T17:58:00.551Z,1.3
2022-07-28T17:59:16.789Z,1.3